createdAt,value
2023-05-21T00:21:43.058Z,97234.94
2023-05-21T00:24:10.859Z,97238.63
2023-05-21T00:26:38.664Z,97233.59
2023-05-21T00:29:07.219Z,97227.47
2023-05-21T00:31:35.085Z,97221.25
2023-05-21T00:34:02.827Z,97228.38
2023-05-21T00:36:31.389Z,97221.25
2023-05-21T00:39:00.583Z,97229.81
2023-05-21T00:41:30.328Z,97227.41
2023-05-21T00:44:00.434Z,97216.13
2023-05-21T00:46:29.591Z,97220.97
2023-05-21T00:48:58.160Z,97216.56
2023-05-21T00:51:26.048Z,97220.06
2023-05-21T00:53:53.836Z,97222.38
2023-05-21T00:56:23.026Z,97219.34
2023-05-21T00:58:51.992Z,97215.22
2023-05-21T01:01:19.799Z,97210.34
2023-05-21T01:03:48.932Z,97213.16
2023-05-21T01:06:17.173Z,97201.56
2023-05-21T01:08:45.583Z,97203.56
2023-05-21T01:11:14.423Z,97197.19
2023-05-21T01:13:43.897Z,97204.31
2023-05-21T01:16:13.538Z,97194.16
2023-05-21T01:18:43.760Z,97181.72
2023-05-21T01:21:13.764Z,97164.44
2023-05-21T01:23:42.956Z,97157.28
2023-05-21T01:26:13.030Z,97150.50
2023-05-21T01:28:40.851Z,97150.78
2023-05-21T01:31:12.920Z,97149.63
2023-05-21T01:33:42.858Z,97137.00
2023-05-21T01:36:14.034Z,97135.44
2023-05-21T01:38:43.883Z,97125.41
2023-05-21T01:41:12.012Z,97131.06
2023-05-21T01:43:40.157Z,97111.69
2023-05-21T01:46:08.257Z,97115.94
2023-05-21T01:48:36.859Z,97113.63
2023-05-21T01:51:05.276Z,97125.75
2023-05-21T01:53:33.198Z,97125.22
2023-05-21T01:56:02.966Z,97140.06
2023-05-21T01:58:31.193Z,97144.19
2023-05-21T02:00:59.029Z,97146.47
2023-05-21T02:03:28.187Z,97157.06
2023-05-21T02:05:56.396Z,97161.22
2023-05-21T02:08:25.613Z,97160.28
2023-05-21T02:10:53.559Z,97159.72
2023-05-21T02:13:25.845Z,97164.56
2023-05-21T02:19:48.301Z,97162.53
2023-05-21T02:22:15.971Z,97163.41
2023-05-21T02:24:43.784Z,97157.03
2023-05-21T02:27:13.488Z,97150.91
2023-05-21T02:29:42.573Z,97150.84
2023-05-21T02:32:10.324Z,97160.94
2023-05-21T02:34:42.437Z,97155.53
2023-05-21T02:37:10.225Z,97143.38
2023-05-21T02:39:38.037Z,97129.22
2023-05-21T02:42:06.023Z,97109.31
2023-05-21T02:44:33.778Z,97100.75
2023-05-21T02:47:02.882Z,97096.31
2023-05-21T02:49:30.916Z,97077.66
2023-05-21T02:51:58.866Z,97076.63
2023-05-21T02:54:26.619Z,97069.09
2023-05-21T02:56:54.437Z,97064.44
2023-05-21T02:59:22.289Z,97049.22
2023-05-21T03:01:50.090Z,97043.56
2023-05-21T03:04:21.797Z,97041.59
2023-05-21T03:06:49.992Z,97044.59
2023-05-21T03:09:17.730Z,97035.94
2023-05-21T03:11:45.505Z,97039.00
2023-05-21T03:14:13.461Z,97028.09
2023-05-21T03:16:41.931Z,97026.06
2023-05-21T03:19:09.834Z,97013.56
2023-05-21T03:21:39.014Z,97014.16
2023-05-21T03:24:07.108Z,97020.94
2023-05-21T03:26:34.854Z,97011.06
2023-05-21T03:29:02.630Z,97017.94
2023-05-21T03:31:30.504Z,97015.72
2023-05-21T03:34:12.505Z,97013.69
2023-05-21T03:36:41.904Z,97021.72
2023-05-21T03:39:09.644Z,97035.00
2023-05-21T03:41:37.447Z,97051.72
2023-05-21T03:44:11.624Z,97054.63
2023-05-21T03:46:50.383Z,97062.59
2023-05-21T03:49:29.743Z,97062.59
2023-05-21T03:52:00.001Z,97081.09
2023-05-21T03:54:28.671Z,97079.00
2023-05-21T03:57:01.088Z,97088.16
2023-05-21T03:59:29.950Z,97088.53
2023-05-21T04:01:57.768Z,97076.72
2023-05-21T04:04:25.730Z,97072.38
2023-05-21T04:06:54.372Z,97069.38
2023-05-21T04:09:25.168Z,97058.09
2023-05-21T04:11:53.207Z,97046.72
2023-05-21T04:14:21.571Z,97059.47
2023-05-21T04:16:50.066Z,97077.31
2023-05-21T04:19:18.032Z,97088.75
2023-05-21T04:21:46.048Z,97106.03
2023-05-21T04:24:15.579Z,97121.72
2023-05-21T04:27:05.233Z,97135.56
2023-05-21T04:29:33.912Z,97139.84
2023-05-21T04:32:02.334Z,97154.28
2023-05-21T04:34:30.157Z,97159.44
2023-05-21T04:36:58.266Z,97161.88
2023-05-21T04:39:25.992Z,97176.56
2023-05-21T04:41:54.835Z,97179.66
2023-05-21T04:44:24.849Z,97179.25
2023-05-21T04:46:54.941Z,97186.44
2023-05-21T04:49:22.890Z,97192.00
2023-05-21T04:51:50.669Z,97193.19
2023-05-21T04:54:18.468Z,97201.28
2023-05-21T04:56:47.439Z,97195.22
2023-05-21T04:59:15.956Z,97197.63
2023-05-21T05:01:45.300Z,97201.94
2023-05-21T05:04:13.124Z,97197.78
2023-05-21T05:06:41.077Z,97198.31
2023-05-21T05:09:08.869Z,97198.75
2023-05-21T05:11:37.089Z,97185.53
2023-05-21T05:14:05.556Z,97184.94
2023-05-21T05:16:34.246Z,97168.22
2023-05-21T05:19:03.707Z,97166.03
2023-05-21T05:21:31.859Z,97160.97
2023-05-21T05:24:00.440Z,97164.50
2023-05-21T05:26:30.851Z,97156.88
2023-05-21T05:28:58.657Z,97154.53
2023-05-21T05:31:26.749Z,97144.34
2023-05-21T05:33:54.934Z,97145.34
2023-05-21T05:36:26.361Z,97134.03
2023-05-21T05:38:54.161Z,97146.22
2023-05-21T05:41:22.778Z,97138.72
2023-05-21T05:43:51.336Z,97156.09
2023-05-21T05:46:21.420Z,97171.38
2023-05-21T05:48:49.347Z,97186.44
2023-05-21T05:51:17.277Z,97192.56
2023-05-21T05:53:46.560Z,97193.47
2023-05-21T05:56:14.421Z,97201.03
2023-05-21T05:58:42.287Z,97215.97
2023-05-21T06:01:13.466Z,97216.06
2023-05-21T06:03:42.180Z,97224.91
2023-05-21T06:06:15.764Z,97227.69
2023-05-21T06:08:43.469Z,97231.16
2023-05-21T06:11:12.625Z,97233.56
2023-05-21T06:13:40.871Z,97252.84
2023-05-21T06:16:10.081Z,97247.16
2023-05-21T06:18:38.741Z,97253.78
2023-05-21T06:21:06.547Z,97261.50
2023-05-21T06:23:36.611Z,97268.94
2023-05-21T06:26:04.865Z,97267.19
2023-05-21T06:28:34.701Z,97265.22
2023-05-21T06:31:02.559Z,97267.75
2023-05-21T06:33:33.393Z,97269.44
2023-05-21T06:36:01.672Z,97279.56
2023-05-21T06:38:29.789Z,97272.16
2023-05-21T06:40:58.469Z,97278.16
2023-05-21T06:43:47.628Z,97283.91
2023-05-21T06:46:33.878Z,97285.38
2023-05-21T06:49:02.564Z,97277.81
2023-05-21T06:51:30.399Z,97290.00
2023-05-21T06:53:58.243Z,97287.59
2023-05-21T06:56:26.602Z,97301.06
2023-05-21T07:02:45.078Z,97313.81
2023-05-21T07:05:17.440Z,97317.81
2023-05-21T07:07:45.111Z,97325.25
2023-05-21T07:10:12.823Z,97337.22
2023-05-21T07:12:41.459Z,97344.00
2023-05-21T07:15:10.125Z,97355.84
2023-05-21T07:17:37.991Z,97364.09
2023-05-21T07:20:09.784Z,97372.44
2023-05-21T07:22:39.631Z,97377.75
2023-05-21T07:25:09.895Z,97383.31
2023-05-21T07:27:38.024Z,97377.69
2023-05-21T07:30:06.151Z,97384.06
2023-05-21T07:32:34.127Z,97389.03
2023-05-21T07:35:03.088Z,97386.81
2023-05-21T07:37:33.447Z,97389.84
2023-05-21T07:40:01.350Z,97398.31
2023-05-21T07:42:31.699Z,97399.47
2023-05-21T07:44:59.913Z,97396.19
2023-05-21T07:47:28.938Z,97400.09
2023-05-21T07:49:56.841Z,97402.22
2023-05-21T07:52:24.679Z,97405.38
2023-05-21T07:54:54.329Z,97411.50
2023-05-21T07:57:23.678Z,97408.38
2023-05-21T07:59:58.648Z,97410.72
2023-05-21T08:02:27.123Z,97417.63
2023-05-21T08:04:55.528Z,97417.09
2023-05-21T08:07:23.573Z,97422.53
2023-05-21T08:09:53.825Z,97415.66
2023-05-21T08:12:23.458Z,97412.53
2023-05-21T08:14:51.620Z,97426.03
2023-05-21T08:17:19.410Z,97422.22
2023-05-21T08:19:47.209Z,97421.88
2023-05-21T08:22:15.477Z,97425.50
2023-05-21T08:24:46.420Z,97435.13
2023-05-21T08:27:16.235Z,97428.88
2023-05-21T08:29:45.886Z,97425.31
2023-05-21T08:32:13.796Z,97433.19
2023-05-21T08:34:42.107Z,97430.09
2023-05-21T08:37:22.345Z,97432.84
2023-05-21T08:40:11.451Z,97433.25
2023-05-21T08:42:44.679Z,97439.00
2023-05-21T08:45:21.259Z,97431.06
2023-05-21T08:47:49.195Z,97431.66
2023-05-21T08:50:19.373Z,97425.81
2023-05-21T08:52:47.895Z,97428.53
2023-05-21T08:55:15.820Z,97430.78
2023-05-21T08:57:43.988Z,97433.91
2023-05-21T09:00:15.139Z,97425.13
2023-05-21T09:02:46.430Z,97421.56
2023-05-21T09:05:16.737Z,97429.06
2023-05-21T09:07:45.636Z,97426.97
2023-05-21T09:10:25.877Z,97425.91
2023-05-21T09:12:53.768Z,97423.81
2023-05-21T09:15:21.998Z,97424.94
2023-05-21T09:18:46.037Z,97432.69
2023-05-21T09:21:34.520Z,97427.34
2023-05-21T09:24:15.286Z,97432.56
2023-05-21T09:26:44.489Z,97430.19
2023-05-21T09:29:13.936Z,97434.22
2023-05-21T09:31:44.403Z,97440.16
2023-05-21T09:34:14.722Z,97440.97
2023-05-21T09:36:46.188Z,97437.72
2023-05-21T09:39:16.665Z,97441.84
2023-05-21T09:41:45.639Z,97427.34
2023-05-21T09:44:13.586Z,97427.91
2023-05-21T09:46:44.346Z,97425.97
2023-05-21T09:49:23.557Z,97430.56
2023-05-21T09:51:54.521Z,97439.16
2023-05-21T09:54:22.334Z,97437.53
2023-05-21T09:56:50.221Z,97435.38
2023-05-21T09:59:18.227Z,97432.97
2023-05-21T10:01:46.184Z,97433.78
2023-05-21T10:04:15.551Z,97437.28
2023-05-21T10:06:43.975Z,97433.25
2023-05-21T10:09:16.062Z,97435.13
2023-05-21T10:11:46.658Z,97436.50
2023-05-21T10:14:16.394Z,97434.91
2023-05-21T10:16:44.555Z,97440.00
2023-05-21T10:19:12.707Z,97432.22
2023-05-21T10:21:40.836Z,97432.19
2023-05-21T10:24:08.683Z,97424.94
2023-05-21T10:26:38.407Z,97426.28
2023-05-21T10:29:06.195Z,97426.28
2023-05-21T10:31:34.933Z,97437.63
2023-05-21T10:34:02.695Z,97425.22
2023-05-21T10:36:31.097Z,97414.16
2023-05-21T10:38:58.874Z,97416.59
2023-05-21T10:41:26.736Z,97417.13
2023-05-21T10:44:01.169Z,97417.63
2023-05-21T10:46:58.226Z,97416.81
2023-05-21T10:49:29.296Z,97420.91
2023-05-21T10:52:02.296Z,97412.56
2023-05-21T10:54:37.017Z,97409.56
2023-05-21T10:57:07.221Z,97409.59
2023-05-21T10:59:41.181Z,97415.00
2023-05-21T11:02:09.133Z,97409.63
2023-05-21T11:04:40.107Z,97413.31
2023-05-21T11:07:10.630Z,97405.50
2023-05-21T11:09:38.329Z,97409.03
2023-05-21T11:12:08.215Z,97407.72
2023-05-21T11:14:42.213Z,97407.16
2023-05-21T11:17:14.915Z,97415.00
2023-05-21T11:19:43.430Z,97403.41
2023-05-21T11:22:11.861Z,97398.00
2023-05-21T11:24:40.493Z,97398.78
2023-05-21T11:27:10.636Z,97396.13
2023-05-21T11:29:40.822Z,97409.31
2023-05-21T11:32:09.323Z,97406.06
2023-05-21T11:34:40.640Z,97407.13
2023-05-21T11:37:37.236Z,97407.41
2023-05-21T11:40:18.155Z,97409.03
2023-05-21T11:42:49.349Z,97402.03
2023-05-21T11:45:21.166Z,97410.91
2023-05-21T11:47:49.492Z,97416.31
2023-05-21T11:50:32.804Z,97407.66
2023-05-21T11:53:01.030Z,97406.06
2023-05-21T11:55:29.074Z,97400.91
2023-05-21T11:57:56.904Z,97398.75
2023-05-21T12:00:24.711Z,97389.84
2023-05-21T12:02:56.009Z,97390.84
2023-05-21T12:05:27.393Z,97380.28
2023-05-21T12:07:56.853Z,97386.44
2023-05-21T12:10:30.913Z,97398.16
2023-05-21T12:12:59.873Z,97385.22
2023-05-21T12:15:29.023Z,97385.75
2023-05-21T12:17:57.161Z,97390.13
2023-05-21T12:20:28.954Z,97379.03
2023-05-21T12:22:58.055Z,97375.84
2023-05-21T12:25:25.804Z,97373.38
2023-05-21T12:27:58.397Z,97367.22
2023-05-21T12:30:26.486Z,97364.03
2023-05-21T12:32:54.395Z,97363.03
2023-05-21T12:35:23.204Z,97356.94
2023-05-21T12:37:53.134Z,97363.69
2023-05-21T12:40:21.220Z,97370.38
2023-05-21T12:42:49.031Z,97377.16
2023-05-21T12:45:18.903Z,97372.59
2023-05-21T12:47:49.031Z,97369.66
2023-05-21T12:50:16.898Z,97366.66
2023-05-21T12:52:45.202Z,97374.22
2023-05-21T12:55:15.248Z,97372.34
2023-05-21T12:57:44.420Z,97357.63
2023-05-21T13:00:12.753Z,97357.75
2023-05-21T13:02:40.873Z,97358.81
2023-05-21T13:05:09.199Z,97353.97
2023-05-21T13:07:37.781Z,97354.41
2023-05-21T13:10:06.241Z,97359.41
2023-05-21T13:12:34.135Z,97355.03
2023-05-21T13:15:03.647Z,97351.56
2023-05-21T13:17:31.444Z,97349.63
2023-05-21T13:20:06.728Z,97352.28
2023-05-21T13:22:35.443Z,97353.38
2023-05-21T13:25:03.414Z,97349.28
2023-05-21T13:27:31.302Z,97342.06
2023-05-21T13:29:59.332Z,97344.97
2023-05-21T13:32:28.676Z,97339.31
2023-05-21T13:34:56.540Z,97339.38
2023-05-21T13:37:24.380Z,97343.06
2023-05-21T13:39:52.283Z,97333.47
2023-05-21T13:42:21.238Z,97342.13
2023-05-21T13:44:49.079Z,97336.19
2023-05-21T13:47:17.028Z,97328.06
2023-05-21T13:49:46.207Z,97329.09
2023-05-21T13:52:13.987Z,97329.69
2023-05-21T13:54:41.813Z,97322.13
2023-05-21T13:57:09.733Z,97324.25
2023-05-21T13:59:37.516Z,97328.63
2023-05-21T14:02:05.517Z,97320.53
2023-05-21T14:04:33.350Z,97333.97
2023-05-21T14:07:03.009Z,97329.41
2023-05-21T14:09:30.862Z,97332.00
2023-05-21T14:11:58.857Z,97337.19
2023-05-21T14:14:26.670Z,97330.69
2023-05-21T14:16:54.528Z,97324.84
2023-05-21T14:19:22.473Z,97334.88
2023-05-21T14:21:52.505Z,97330.81
2023-05-21T14:24:21.711Z,97327.81
2023-05-21T14:26:49.520Z,97330.13
2023-05-21T14:29:19.797Z,97328.06
2023-05-21T14:31:47.775Z,97323.97
2023-05-21T14:34:15.690Z,97322.13
2023-05-21T14:36:47.504Z,97328.56
2023-05-21T14:39:15.683Z,97332.13
2023-05-21T14:41:45.142Z,97337.25
2023-05-21T14:44:14.400Z,97325.91
2023-05-21T14:46:43.777Z,97327.03
2023-05-21T14:49:12.455Z,97321.13
2023-05-21T14:51:40.734Z,97323.06
2023-05-21T14:54:09.058Z,97318.44
2023-05-21T14:56:36.860Z,97316.25
2023-05-21T14:59:06.745Z,97302.78
2023-05-21T15:01:34.798Z,97302.69
2023-05-21T15:04:03.679Z,97312.38
2023-05-21T15:06:34.707Z,97308.13
2023-05-21T15:09:02.679Z,97295.00
2023-05-21T15:11:30.568Z,97309.66
2023-05-21T15:14:00.500Z,97306.47
2023-05-21T15:16:29.759Z,97315.91
2023-05-21T15:18:59.397Z,97309.44
2023-05-21T15:21:28.179Z,97303.03
2023-05-21T15:23:56.176Z,97309.78
2023-05-21T15:26:25.663Z,97305.06
2023-05-21T15:28:53.523Z,97302.94
2023-05-21T15:31:21.529Z,97295.66
2023-05-21T15:33:53.105Z,97299.47
2023-05-21T15:36:23.585Z,97290.81
2023-05-21T15:38:51.371Z,97300.03
2023-05-21T15:41:25.227Z,97292.19
2023-05-21T15:43:55.491Z,97291.31
2023-05-21T15:46:23.723Z,97295.41
2023-05-21T15:48:53.015Z,97293.03
2023-05-21T15:51:20.830Z,97292.63
2023-05-21T15:53:50.617Z,97295.28
2023-05-21T15:56:18.517Z,97292.81
2023-05-21T15:58:46.327Z,97297.13
2023-05-21T16:01:14.131Z,97293.06
2023-05-21T16:03:42.086Z,97290.63
2023-05-21T16:06:11.484Z,97295.22
2023-05-21T16:08:39.353Z,97300.06
2023-05-21T16:11:07.196Z,97288.34
2023-05-21T16:13:35.151Z,97291.09
2023-05-21T16:16:03.153Z,97284.06
2023-05-21T16:18:31.745Z,97280.81
2023-05-21T16:20:59.898Z,97282.44
2023-05-21T16:23:29.341Z,97280.31
2023-05-21T16:25:57.108Z,97282.72
2023-05-21T16:30:55.031Z,97282.44
2023-05-21T16:33:23.005Z,97279.50
2023-05-21T16:35:50.934Z,97282.97
2023-05-21T16:38:18.766Z,97283.53
2023-05-21T16:40:49.144Z,97282.72
2023-05-21T16:43:17.041Z,97284.59
2023-05-21T16:45:46.458Z,97280.31
2023-05-21T16:48:19.418Z,97276.78
2023-05-21T16:50:47.624Z,97277.88
2023-05-21T16:53:17.473Z,97279.22
2023-05-21T16:55:45.462Z,97279.75
2023-05-21T16:58:16.741Z,97276.53
2023-05-21T17:00:51.244Z,97282.44
2023-05-21T17:03:20.967Z,97280.53
2023-05-21T17:05:50.241Z,97286.69
2023-05-21T17:08:23.068Z,97283.97
2023-05-21T17:10:51.244Z,97283.72
2023-05-21T17:13:22.501Z,97280.22
2023-05-21T17:15:51.426Z,97283.72
2023-05-21T17:18:19.705Z,97282.44
2023-05-21T17:20:47.565Z,97281.91
2023-05-21T17:23:15.486Z,97287.50
2023-05-21T17:25:43.549Z,97290.44
2023-05-21T17:28:17.229Z,97295.81
2023-05-21T17:30:48.698Z,97296.91
2023-05-21T17:33:17.897Z,97294.19
2023-05-21T17:35:48.751Z,97302.75
2023-05-21T17:38:19.142Z,97290.31
2023-05-21T17:40:50.702Z,97289.75
2023-05-21T17:43:21.058Z,97291.53
2023-05-21T17:45:50.259Z,97293.00
2023-05-21T17:48:19.268Z,97291.31
2023-05-21T17:50:47.916Z,97292.31
2023-05-21T17:53:16.492Z,97294.63
2023-05-21T17:55:44.516Z,97296.66
2023-05-21T17:58:12.397Z,97300.03
2023-05-21T18:00:43.520Z,97302.75
2023-05-21T18:03:15.190Z,97293.97
2023-05-21T18:05:44.331Z,97295.63
2023-05-21T18:08:14.982Z,97288.28
2023-05-21T18:10:45.439Z,97286.88
2023-05-21T18:13:13.253Z,97290.94
2023-05-21T18:15:42.388Z,97292.81
2023-05-21T18:18:10.509Z,97299.31
2023-05-21T18:20:40.213Z,97290.41
2023-05-21T18:23:09.281Z,97283.72
2023-05-21T18:25:37.792Z,97285.47
2023-05-21T18:28:06.231Z,97283.81
2023-05-21T18:30:34.122Z,97291.75
2023-05-21T18:33:02.087Z,97287.72
2023-05-21T18:35:31.200Z,97282.78
2023-05-21T18:38:04.221Z,97273.69
2023-05-21T18:40:34.879Z,97275.06
2023-05-21T18:43:06.806Z,97278.94
2023-05-21T18:45:34.784Z,97273.94
2023-05-21T18:48:03.246Z,97268.25
2023-05-21T18:50:31.876Z,97270.50
2023-05-21T18:53:03.208Z,97265.41
2023-05-21T18:55:42.384Z,97261.72
2023-05-21T18:58:10.624Z,97266.38
2023-05-21T19:00:40.793Z,97266.63
2023-05-21T19:03:08.907Z,97261.31
2023-05-21T19:05:36.946Z,97258.66
2023-05-21T19:08:04.933Z,97253.22
2023-05-21T19:10:32.854Z,97240.50
2023-05-21T19:13:05.594Z,97227.44
2023-05-21T19:15:34.762Z,97217.59
2023-05-21T19:18:03.728Z,97196.56
2023-05-21T19:20:31.628Z,97181.06
2023-05-21T19:22:59.628Z,97178.06
2023-05-21T19:25:27.621Z,97187.78
2023-05-21T19:27:56.497Z,97197.09
2023-05-21T19:30:25.561Z,97206.47
2023-05-21T19:32:53.439Z,97220.53
2023-05-21T19:35:22.525Z,97224.63
2023-05-21T19:37:51.729Z,97237.84
2023-05-21T19:40:24.771Z,97253.09
2023-05-21T19:42:52.585Z,97239.25
2023-05-21T19:45:21.457Z,97237.78
2023-05-21T19:47:54.114Z,97236.50
2023-05-21T19:50:21.927Z,97227.94
2023-05-21T19:52:49.909Z,97213.31
2023-05-21T19:55:20.464Z,97213.63
2023-05-21T19:57:48.791Z,97197.56
2023-05-21T20:00:16.962Z,97202.78
2023-05-21T20:02:46.135Z,97205.94
2023-05-21T20:05:16.283Z,97204.06
2023-05-21T20:07:44.886Z,97205.09
2023-05-21T20:10:12.697Z,97212.50
2023-05-21T20:12:40.518Z,97218.47
2023-05-21T20:15:09.017Z,97221.84
2023-05-21T20:17:39.754Z,97214.16
2023-05-21T20:20:10.697Z,97226.31
2023-05-21T20:22:43.065Z,97217.72
2023-05-21T20:25:16.311Z,97228.38
2023-05-21T20:27:47.955Z,97224.47
2023-05-21T20:30:19.240Z,97231.38
2023-05-21T20:32:56.026Z,97228.34
2023-05-21T20:35:24.757Z,97238.13
2023-05-21T20:37:54.272Z,97224.44
2023-05-21T20:40:22.032Z,97215.19
2023-05-21T20:42:53.596Z,97213.78
2023-05-21T20:45:22.100Z,97216.34
2023-05-21T20:47:50.345Z,97215.34
2023-05-21T20:50:18.495Z,97218.09
2023-05-21T20:52:48.452Z,97226.69
2023-05-21T20:55:17.896Z,97219.94
2023-05-21T20:57:45.654Z,97225.69
2023-05-21T21:00:15.927Z,97234.47
2023-05-21T21:02:44.123Z,97231.84
2023-05-21T21:05:12.807Z,97233.16
2023-05-21T21:07:40.543Z,97239.22
2023-05-21T21:10:08.836Z,97241.00
2023-05-21T21:12:38.005Z,97235.00
2023-05-21T21:15:06.280Z,97228.97
2023-05-21T21:17:34.085Z,97223.72
2023-05-21T21:20:01.900Z,97235.66
2023-05-21T21:22:29.710Z,97230.03
2023-05-21T21:24:57.552Z,97231.50
2023-05-21T21:27:25.370Z,97238.47
2023-05-21T21:29:54.624Z,97238.50
2023-05-21T21:32:22.435Z,97230.06
2023-05-21T21:34:50.364Z,97227.97
2023-05-21T21:37:18.154Z,97236.97
2023-05-21T21:39:45.883Z,97243.84
2023-05-21T21:42:13.806Z,97235.13
2023-05-21T21:44:42.175Z,97253.41
2023-05-21T21:47:11.424Z,97251.66
2023-05-21T21:49:39.273Z,97245.34
2023-05-21T21:52:07.339Z,97253.34
2023-05-21T21:54:35.188Z,97248.59
2023-05-21T21:57:03.104Z,97256.84
2023-05-21T21:59:30.845Z,97260.44
2023-05-21T22:01:58.563Z,97261.84
2023-05-21T22:04:27.704Z,97261.03
2023-05-21T22:06:55.475Z,97251.88
2023-05-21T22:09:23.388Z,97268.94
2023-05-21T22:11:52.045Z,97268.28
2023-05-21T22:14:19.898Z,97256.69
2023-05-21T22:16:48.454Z,97249.81
2023-05-21T22:19:20.654Z,97257.22
2023-05-21T22:21:50.198Z,97257.25
2023-05-21T22:24:31.067Z,97242.88
2023-05-21T22:27:00.104Z,97247.47
2023-05-21T22:29:27.912Z,97250.03
2023-05-21T22:31:55.686Z,97251.94
2023-05-21T22:34:25.280Z,97262.38
2023-05-21T22:36:54.561Z,97253.41
2023-05-21T22:39:22.340Z,97252.75
2023-05-21T22:41:50.154Z,97243.78
2023-05-21T22:44:18.006Z,97251.56
2023-05-21T22:46:47.787Z,97246.81
2023-05-21T22:49:15.905Z,97261.41
2023-05-21T22:51:45.045Z,97264.59
2023-05-21T22:54:14.249Z,97263.47
2023-05-21T22:56:42.020Z,97264.09
2023-05-21T22:59:09.942Z,97256.31
2023-05-21T23:01:38.445Z,97260.38
2023-05-21T23:04:06.444Z,97247.28
2023-05-21T23:06:34.459Z,97247.81
2023-05-21T23:09:02.266Z,97236.47
2023-05-21T23:11:31.541Z,97236.06
2023-05-21T23:13:59.316Z,97233.81
2023-05-21T23:16:27.165Z,97234.13
2023-05-21T23:18:55.118Z,97242.63
2023-05-21T23:21:23.010Z,97235.56
2023-05-21T23:23:50.753Z,97233.03
2023-05-21T23:26:18.512Z,97237.53
2023-05-21T23:28:47.627Z,97235.78
2023-05-21T23:31:15.464Z,97239.50
2023-05-21T23:33:43.306Z,97237.28
2023-05-21T23:36:11.257Z,97237.66
2023-05-21T23:38:39.026Z,97239.03
2023-05-21T23:41:06.907Z,97240.78
2023-05-21T23:43:35.148Z,97244.84
2023-05-21T23:46:04.316Z,97251.78
2023-05-21T23:48:33.219Z,97248.19
2023-05-21T23:51:00.955Z,97244.84
2023-05-21T23:53:28.734Z,97234.66
2023-05-21T23:55:56.507Z,97236.75
2023-05-21T23:58:24.307Z,97233.47
